Aigaion — SYMC — position and weather

sailwx.info

Track history (hours):
 
Tides and Currents Weather Stations Pressure Air Temp Water Temp Dewpoint Dewpoint Depression Visibility Wind Speed Wind Dir Waves Ship Positions

Aigaion

Last reported at 2017-Feb-06 22:17 UTC. Time now 2017-Feb-20 06:19 UTC.
Position N 38°20' E 121°36'.
Warning: this ship's position is 13 days out of date.

Length 289 m; draft 8.4 m.

Type: Cargo ship. MMSI: 240174000.

Date/timePositionNaut miles runAvg speedWind from/ knotsBaromVisibWave heightAir tempDewpointWater temp
2017-Feb-06 22:17N 38°20' E 121°36'7 9.6
2017-Feb-06 21:33N 38°23' E 121°28'11 9.7
2017-Feb-06 20:24N 38°25' E 121°14'910.2
2017-Feb-06 19:34N 38°29' E 121°04'1110.5
2017-Feb-06 18:33N 38°34' E 120°52'1010.1
2017-Feb-06 17:34N 38°36' E 120°40'  
2017-Feb-02 05:28N 38°40' E 120°40'9 8.9
2017-Feb-02 04:30N 38°37' E 120°51'8 8.3
2017-Feb-02 03:33N 38°34' E 120°60'8 7.8
2017-Feb-02 02:33N 38°31' E 121°09'8 7.8
2017-Feb-02 01:29N 38°29' E 121°19'7 7.7
2017-Feb-02 00:33N 38°27' E 121°28'8 7.9
2017-Feb-01 23:32N 38°24' E 121°38'  
Track history (hours):
 
Tides and Currents Weather Stations Pressure Air Temp Water Temp Dewpoint Dewpoint Depression Visibility Wind Speed Wind Dir Waves Ship Positions

Aigaion

Last reported at 2017-Feb-06 22:17 UTC. Time now 2017-Feb-20 06:19 UTC.
Position N 38°20' E 121°36'.
Warning: this ship's position is 13 days out of date.

Length 289 m; draft 8.4 m.

Type: Cargo ship. MMSI: 240174000.

Date/timePositionNaut miles runAvg speedWind from/ knotsBaromVisibWave heightAir tempDewpointWater temp
2017-Feb-06 22:17N 38°20' E 121°36'7 9.6
2017-Feb-06 21:33N 38°23' E 121°28'11 9.7
2017-Feb-06 20:24N 38°25' E 121°14'910.2
2017-Feb-06 19:34N 38°29' E 121°04'1110.5
2017-Feb-06 18:33N 38°34' E 120°52'1010.1
2017-Feb-06 17:34N 38°36' E 120°40'  
2017-Feb-02 05:28N 38°40' E 120°40'9 8.9
2017-Feb-02 04:30N 38°37' E 120°51'8 8.3
2017-Feb-02 03:33N 38°34' E 120°60'8 7.8
2017-Feb-02 02:33N 38°31' E 121°09'8 7.8
2017-Feb-02 01:29N 38°29' E 121°19'7 7.7
2017-Feb-02 00:33N 38°27' E 121°28'8 7.9
2017-Feb-01 23:32N 38°24' E 121°38'  

Dump ship's entire track history